sensor_id;sensor_type;location;lat;lon;timestamp;temperature;humidity
8945;DHT22;4507;40.232;29.132;2023-10-08T00:02:43;16.10;99.90
8945;DHT22;4507;40.232;29.132;2023-10-08T00:05:13;16.10;99.90
8945;DHT22;4507;40.232;29.132;2023-10-08T00:07:44;16.10;99.90
8945;DHT22;4507;40.232;29.132;2023-10-08T00:10:18;16.10;99.90
8945;DHT22;4507;40.232;29.132;2023-10-08T00:13:07;16.00;99.90
8945;DHT22;4507;40.232;29.132;2023-10-08T00:15:58;16.00;99.90
8945;DHT22;4507;40.232;29.132;2023-10-08T00:18:28;16.00;99.90
8945;DHT22;4507;40.232;29.132;2023-10-08T00:21:00;15.90;99.90
8945;DHT22;4507;40.232;29.132;2023-10-08T00:23:44;15.90;99.90
8945;DHT22;4507;40.232;29.132;2023-10-08T00:26:22;15.80;99.90
8945;DHT22;4507;40.232;29.132;2023-10-08T00:28:58;15.80;99.90
8945;DHT22;4507;40.232;29.132;2023-10-08T00:31:28;15.70;99.90
8945;DHT22;4507;40.232;29.132;2023-10-08T00:34:11;15.70;99.90
8945;DHT22;4507;40.232;29.132;2023-10-08T00:36:56;15.60;99.90
8945;DHT22;4507;40.232;29.132;2023-10-08T00:39:28;15.50;99.90
8945;DHT22;4507;40.232;29.132;2023-10-08T00:42:04;15.50;99.90
8945;DHT22;4507;40.232;29.132;2023-10-08T00:44:44;15.40;99.90
8945;DHT22;4507;40.232;29.132;2023-10-08T00:47:23;15.40;99.90
8945;DHT22;4507;40.232;29.132;2023-10-08T00:50:09;15.40;99.90
8945;DHT22;4507;40.232;29.132;2023-10-08T00:52:53;15.40;99.90
8945;DHT22;4507;40.232;29.132;2023-10-08T00:55:46;15.40;99.90
8945;DHT22;4507;40.232;29.132;2023-10-08T00:58:30;15.40;99.90
8945;DHT22;4507;40.232;29.132;2023-10-08T01:01:02;15.40;99.90
8945;DHT22;4507;40.232;29.132;2023-10-08T01:03:47;15.30;99.90
8945;DHT22;4507;40.232;29.132;2023-10-08T01:06:37;15.30;99.90
8945;DHT22;4507;40.232;29.132;2023-10-08T01:09:07;15.30;99.90
8945;DHT22;4507;40.232;29.132;2023-10-08T01:11:46;14.90;99.90
8945;DHT22;4507;40.232;29.132;2023-10-08T01:14:19;15.30;99.90
8945;DHT22;4507;40.232;29.132;2023-10-08T01:17:07;15.30;99.90
8945;DHT22;4507;40.232;29.132;2023-10-08T01:19:48;15.30;99.90
8945;DHT22;4507;40.232;29.132;2023-10-08T01:22:24;15.30;99.90
8945;DHT22;4507;40.232;29.132;2023-10-08T01:24:57;15.30;99.90
8945;DHT22;4507;40.232;29.132;2023-10-08T01:27:31;15.30;99.90
8945;DHT22;4507;40.232;29.132;2023-10-08T01:30:02;15.30;99.90
8945;DHT22;4507;40.232;29.132;2023-10-08T01:32:40;15.30;99.90
8945;DHT22;4507;40.232;29.132;2023-10-08T01:35:11;15.30;99.90
8945;DHT22;4507;40.232;29.132;2023-10-08T01:37:52;15.30;99.90
8945;DHT22;4507;40.232;29.132;2023-10-08T01:40:24;15.30;99.90
8945;DHT22;4507;40.232;29.132;2023-10-08T01:43:07;15.30;99.90
8945;DHT22;4507;40.232;29.132;2023-10-08T01:45:41;15.30;99.90
8945;DHT22;4507;40.232;29.132;2023-10-08T01:48:28;15.30;99.90
8945;DHT22;4507;40.232;29.132;2023-10-08T01:51:22;15.30;99.90
8945;DHT22;4507;40.232;29.132;2023-10-08T01:54:05;15.30;99.90
8945;DHT22;4507;40.232;29.132;2023-10-08T01:56:39;15.30;99.90
8945;DHT22;4507;40.232;29.132;2023-10-08T01:59:11;15.30;99.90
8945;DHT22;4507;40.232;29.132;2023-10-08T02:01:43;15.30;99.90
8945;DHT22;4507;40.232;29.132;2023-10-08T02:04:13;15.30;99.90
8945;DHT22;4507;40.232;29.132;2023-10-08T02:07:03;15.30;99.90
8945;DHT22;4507;40.232;29.132;2023-10-08T02:09:38;15.20;99.90
8945;DHT22;4507;40.232;29.132;2023-10-08T02:12:09;15.20;99.90
8945;DHT22;4507;40.232;29.132;2023-10-08T02:14:41;15.20;99.90
8945;DHT22;4507;40.232;29.132;2023-10-08T02:17:12;15.20;99.90
8945;DHT22;4507;40.232;29.132;2023-10-08T02:19:41;15.10;99.90
8945;DHT22;4507;40.232;29.132;2023-10-08T02:22:11;15.10;99.90
8945;DHT22;4507;40.232;29.132;2023-10-08T02:24:42;15.10;99.90
8945;DHT22;4507;40.232;29.132;2023-10-08T02:27:12;15.00;99.90
8945;DHT22;4507;40.232;29.132;2023-10-08T02:29:43;15.00;99.90
8945;DHT22;4507;40.232;29.132;2023-10-08T02:32:12;15.00;99.90
8945;DHT22;4507;40.232;29.132;2023-10-08T02:34:42;14.90;99.90
8945;DHT22;4507;40.232;29.132;2023-10-08T02:37:11;14.90;99.90
8945;DHT22;4507;40.232;29.132;2023-10-08T02:39:42;14.90;99.90
8945;DHT22;4507;40.232;29.132;2023-10-08T02:42:13;14.80;99.90
8945;DHT22;4507;40.232;29.132;2023-10-08T02:44:42;14.80;99.90
8945;DHT22;4507;40.232;29.132;2023-10-08T02:47:12;14.70;99.90
8945;DHT22;4507;40.232;29.132;2023-10-08T02:49:44;14.70;99.90
8945;DHT22;4507;40.232;29.132;2023-10-08T02:52:16;14.70;99.90
8945;DHT22;4507;40.232;29.132;2023-10-08T02:54:47;14.70;99.90
8945;DHT22;4507;40.232;29.132;2023-10-08T02:57:20;14.70;99.90
8945;DHT22;4507;40.232;29.132;2023-10-08T02:59:50;14.70;99.90
8945;DHT22;4507;40.232;29.132;2023-10-08T03:02:23;14.70;99.90
8945;DHT22;4507;40.232;29.132;2023-10-08T03:04:53;14.70;99.90
8945;DHT22;4507;40.232;29.132;2023-10-08T03:07:22;14.70;99.90
8945;DHT22;4507;40.232;29.132;2023-10-08T03:10:02;14.70;99.90
8945;DHT22;4507;40.232;29.132;2023-10-08T03:12:40;14.70;99.90
8945;DHT22;4507;40.232;29.132;2023-10-08T03:15:19;14.70;99.90
8945;DHT22;4507;40.232;29.132;2023-10-08T03:18:24;14.70;99.90
8945;DHT22;4507;40.232;29.132;2023-10-08T03:21:22;14.70;99.90
8945;DHT22;4507;40.232;29.132;2023-10-08T03:24:11;14.70;99.90
8945;DHT22;4507;40.232;29.132;2023-10-08T03:27:14;14.70;99.90
8945;DHT22;4507;40.232;29.132;2023-10-08T03:29:48;14.70;99.90
8945;DHT22;4507;40.232;29.132;2023-10-08T03:32:23;14.60;99.90
8945;DHT22;4507;40.232;29.132;2023-10-08T03:34:54;14.60;99.90
8945;DHT22;4507;40.232;29.132;2023-10-08T03:37:24;14.60;99.90
8945;DHT22;4507;40.232;29.132;2023-10-08T03:40:09;14.60;99.90
8945;DHT22;4507;40.232;29.132;2023-10-08T03:42:56;14.60;99.90
8945;DHT22;4507;40.232;29.132;2023-10-08T03:45:25;14.60;99.90
8945;DHT22;4507;40.232;29.132;2023-10-08T03:48:12;14.50;99.90
8945;DHT22;4507;40.232;29.132;2023-10-08T03:50:43;14.50;99.90
8945;DHT22;4507;40.232;29.132;2023-10-08T03:53:13;14.40;99.90
8945;DHT22;4507;40.232;29.132;2023-10-08T03:55:44;14.40;99.90
8945;DHT22;4507;40.232;29.132;2023-10-08T03:58:17;14.40;99.90
8945;DHT22;4507;40.232;29.132;2023-10-08T04:00:57;14.40;99.90
8945;DHT22;4507;40.232;29.132;2023-10-08T04:03:36;14.40;99.90
8945;DHT22;4507;40.232;29.132;2023-10-08T04:06:28;14.40;99.90
8945;DHT22;4507;40.232;29.132;2023-10-08T04:09:00;14.40;99.90
8945;DHT22;4507;40.232;29.132;2023-10-08T04:12:03;14.40;99.90
8945;DHT22;4507;40.232;29.132;2023-10-08T04:14:40;14.40;99.90
8945;DHT22;4507;40.232;29.132;2023-10-08T04:17:10;14.40;99.90
8945;DHT22;4507;40.232;29.132;2023-10-08T04:19:40;14.40;99.90
8945;DHT22;4507;40.232;29.132;2023-10-08T04:22:11;14.40;99.90
8945;DHT22;4507;40.232;29.132;2023-10-08T04:24:44;14.40;99.90
8945;DHT22;4507;40.232;29.132;2023-10-08T04:27:13;14.40;99.90
8945;DHT22;4507;40.232;29.132;2023-10-08T04:29:44;14.40;99.90
8945;DHT22;4507;40.232;29.132;2023-10-08T04:32:17;14.40;99.90
8945;DHT22;4507;40.232;29.132;2023-10-08T04:34:53;14.40;99.90
8945;DHT22;4507;40.232;29.132;2023-10-08T04:37:24;14.30;99.90
8945;DHT22;4507;40.232;29.132;2023-10-08T04:40:00;14.30;99.90
8945;DHT22;4507;40.232;29.132;2023-10-08T04:42:30;14.20;99.90
8945;DHT22;4507;40.232;29.132;2023-10-08T04:45:00;14.20;99.90
8945;DHT22;4507;40.232;29.132;2023-10-08T04:47:30;14.20;99.90
8945;DHT22;4507;40.232;29.132;2023-10-08T04:50:04;14.20;99.90
8945;DHT22;4507;40.232;29.132;2023-10-08T04:53:11;14.20;99.90
8945;DHT22;4507;40.232;29.132;2023-10-08T04:59:50;14.30;99.90
8945;DHT22;4507;40.232;29.132;2023-10-08T05:02:22;14.40;99.90
8945;DHT22;4507;40.232;29.132;2023-10-08T05:05:02;14.50;99.90
8945;DHT22;4507;40.232;29.132;2023-10-08T05:07:50;14.60;99.90
8945;DHT22;4507;40.232;29.132;2023-10-08T05:10:56;14.70;99.90
8945;DHT22;4507;40.232;29.132;2023-10-08T05:13:43;14.80;99.90
8945;DHT22;4507;40.232;29.132;2023-10-08T05:16:33;14.90;99.90
8945;DHT22;4507;40.232;29.132;2023-10-08T05:19:12;15.00;99.90
8945;DHT22;4507;40.232;29.132;2023-10-08T05:29:09;15.50;99.90
8945;DHT22;4507;40.232;29.132;2023-10-08T05:31:56;15.60;99.90
8945;DHT22;4507;40.232;29.132;2023-10-08T05:34:40;15.70;99.90
8945;DHT22;4507;40.232;29.132;2023-10-08T05:37:19;15.80;99.90
8945;DHT22;4507;40.232;29.132;2023-10-08T05:40:10;15.90;99.90
8945;DHT22;4507;40.232;29.132;2023-10-08T05:43:05;16.00;99.90
8945;DHT22;4507;40.232;29.132;2023-10-08T05:45:50;16.10;99.90
8945;DHT22;4507;40.232;29.132;2023-10-08T05:48:43;16.20;99.90
8945;DHT22;4507;40.232;29.132;2023-10-08T05:51:29;16.20;99.90
8945;DHT22;4507;40.232;29.132;2023-10-08T05:54:29;16.30;99.90
8945;DHT22;4507;40.232;29.132;2023-10-08T05:57:15;16.40;99.90
8945;DHT22;4507;40.232;29.132;2023-10-08T06:00:04;16.50;99.90
8945;DHT22;4507;40.232;29.132;2023-10-08T06:02:47;16.50;99.90
8945;DHT22;4507;40.232;29.132;2023-10-08T06:05:37;16.60;99.90
8945;DHT22;4507;40.232;29.132;2023-10-08T06:08:15;16.70;99.90
8945;DHT22;4507;40.232;29.132;2023-10-08T06:11:04;16.70;99.90
8945;DHT22;4507;40.232;29.132;2023-10-08T06:13:45;16.80;99.90
8945;DHT22;4507;40.232;29.132;2023-10-08T06:16:23;16.80;99.90
8945;DHT22;4507;40.232;29.132;2023-10-08T06:19:10;16.90;99.90
8945;DHT22;4507;40.232;29.132;2023-10-08T06:21:40;16.90;99.90
8945;DHT22;4507;40.232;29.132;2023-10-08T06:24:11;17.00;99.90
8945;DHT22;4507;40.232;29.132;2023-10-08T06:26:45;17.00;99.90
8945;DHT22;4507;40.232;29.132;2023-10-08T06:29:34;17.10;99.90
8945;DHT22;4507;40.232;29.132;2023-10-08T06:32:14;17.10;99.90
8945;DHT22;4507;40.232;29.132;2023-10-08T06:34:48;17.20;99.90
8945;DHT22;4507;40.232;29.132;2023-10-08T06:37:19;17.20;99.90
8945;DHT22;4507;40.232;29.132;2023-10-08T06:40:09;17.30;99.90
8945;DHT22;4507;40.232;29.132;2023-10-08T06:43:07;17.40;99.90
8945;DHT22;4507;40.232;29.132;2023-10-08T06:45:49;17.40;99.90
8945;DHT22;4507;40.232;29.132;2023-10-08T06:48:39;17.60;99.90
8945;DHT22;4507;40.232;29.132;2023-10-08T06:51:10;17.60;99.90
8945;DHT22;4507;40.232;29.132;2023-10-08T06:53:51;17.70;99.90
8945;DHT22;4507;40.232;29.132;2023-10-08T06:56:31;17.80;99.90
8945;DHT22;4507;40.232;29.132;2023-10-08T06:59:01;17.90;99.90
8945;DHT22;4507;40.232;29.132;2023-10-08T07:01:30;18.00;99.90
8945;DHT22;4507;40.232;29.132;2023-10-08T07:04:09;18.00;99.90
8945;DHT22;4507;40.232;29.132;2023-10-08T07:06:41;18.20;99.90
8945;DHT22;4507;40.232;29.132;2023-10-08T07:09:11;18.20;99.90
8945;DHT22;4507;40.232;29.132;2023-10-08T07:11:52;18.30;99.90
8945;DHT22;4507;40.232;29.132;2023-10-08T07:14:23;18.40;99.90
8945;DHT22;4507;40.232;29.132;2023-10-08T07:16:56;18.50;99.90
8945;DHT22;4507;40.232;29.132;2023-10-08T07:19:27;18.60;99.90
8945;DHT22;4507;40.232;29.132;2023-10-08T07:22:07;18.60;99.90
8945;DHT22;4507;40.232;29.132;2023-10-08T07:24:56;18.70;99.90
8945;DHT22;4507;40.232;29.132;2023-10-08T07:27:46;18.80;99.90
8945;DHT22;4507;40.232;29.132;2023-10-08T07:30:16;18.90;99.90
8945;DHT22;4507;40.232;29.132;2023-10-08T07:32:54;19.00;99.90
8945;DHT22;4507;40.232;29.132;2023-10-08T07:35:26;19.00;99.90
8945;DHT22;4507;40.232;29.132;2023-10-08T07:38:09;19.10;99.90
8945;DHT22;4507;40.232;29.132;2023-10-08T07:40:56;19.20;99.90
8945;DHT22;4507;40.232;29.132;2023-10-08T07:43:36;19.30;99.90
8945;DHT22;4507;40.232;29.132;2023-10-08T07:46:41;19.30;99.90
8945;DHT22;4507;40.232;29.132;2023-10-08T07:49:36;19.40;99.90
8945;DHT22;4507;40.232;29.132;2023-10-08T07:52:34;19.50;99.90
8945;DHT22;4507;40.232;29.132;2023-10-08T07:55:03;19.70;99.90
8945;DHT22;4507;40.232;29.132;2023-10-08T07:57:33;19.70;99.90
8945;DHT22;4507;40.232;29.132;2023-10-08T08:00:05;19.80;99.90
8945;DHT22;4507;40.232;29.132;2023-10-08T08:02:46;19.90;99.40
8945;DHT22;4507;40.232;29.132;2023-10-08T08:05:16;20.00;99.10
8945;DHT22;4507;40.232;29.132;2023-10-08T08:07:45;20.10;98.80
8945;DHT22;4507;40.232;29.132;2023-10-08T08:10:17;20.20;98.70
8945;DHT22;4507;40.232;29.132;2023-10-08T08:12:51;20.30;98.40
8945;DHT22;4507;40.232;29.132;2023-10-08T08:15:26;20.40;97.80
8945;DHT22;4507;40.232;29.132;2023-10-08T08:17:57;20.50;97.50
8945;DHT22;4507;40.232;29.132;2023-10-08T08:20:26;20.70;97.30
8945;DHT22;4507;40.232;29.132;2023-10-08T08:23:25;20.80;97.30
8945;DHT22;4507;40.232;29.132;2023-10-08T08:26:06;21.00;96.70
8945;DHT22;4507;40.232;29.132;2023-10-08T08:29:30;21.20;96.80
8945;DHT22;4507;40.232;29.132;2023-10-08T08:32:13;21.40;96.60
8945;DHT22;4507;40.232;29.132;2023-10-08T08:34:43;21.50;96.10
8945;DHT22;4507;40.232;29.132;2023-10-08T08:37:12;21.60;96.30
8945;DHT22;4507;40.232;29.132;2023-10-08T08:39:42;21.80;97.00
8945;DHT22;4507;40.232;29.132;2023-10-08T08:42:11;22.20;98.20
8945;DHT22;4507;40.232;29.132;2023-10-08T08:44:51;22.70;99.70
8945;DHT22;4507;40.232;29.132;2023-10-08T08:47:32;23.40;99.50
8945;DHT22;4507;40.232;29.132;2023-10-08T08:50:14;24.30;98.10
8945;DHT22;4507;40.232;29.132;2023-10-08T08:53:04;25.00;96.20
8945;DHT22;4507;40.232;29.132;2023-10-08T08:55:33;25.70;93.20
8945;DHT22;4507;40.232;29.132;2023-10-08T08:58:03;26.20;91.60
8945;DHT22;4507;40.232;29.132;2023-10-08T09:00:39;26.60;89.00
8945;DHT22;4507;40.232;29.132;2023-10-08T09:03:13;26.90;84.70
8945;DHT22;4507;40.232;29.132;2023-10-08T09:05:42;27.30;80.70
8945;DHT22;4507;40.232;29.132;2023-10-08T09:08:18;27.60;78.90
8945;DHT22;4507;40.232;29.132;2023-10-08T09:10:51;27.80;76.90
8945;DHT22;4507;40.232;29.132;2023-10-08T09:13:29;27.90;75.10
8945;DHT22;4507;40.232;29.132;2023-10-08T09:16:19;28.00;72.60
8945;DHT22;4507;40.232;29.132;2023-10-08T09:18:52;28.00;71.10
8945;DHT22;4507;40.232;29.132;2023-10-08T09:21:21;28.00;69.00
8945;DHT22;4507;40.232;29.132;2023-10-08T09:23:51;28.00;67.90
8945;DHT22;4507;40.232;29.132;2023-10-08T09:26:23;27.90;67.40
8945;DHT22;4507;40.232;29.132;2023-10-08T09:28:53;28.00;66.60
8945;DHT22;4507;40.232;29.132;2023-10-08T09:31:23;28.00;65.90
8945;DHT22;4507;40.232;29.132;2023-10-08T09:33:57;27.90;65.60
8945;DHT22;4507;40.232;29.132;2023-10-08T09:36:26;27.90;64.60
8945;DHT22;4507;40.232;29.132;2023-10-08T09:39:13;27.90;64.80
8945;DHT22;4507;40.232;29.132;2023-10-08T09:41:53;27.90;64.90
8945;DHT22;4507;40.232;29.132;2023-10-08T09:44:46;27.90;65.20
8945;DHT22;4507;40.232;29.132;2023-10-08T09:47:27;28.10;64.40
8945;DHT22;4507;40.232;29.132;2023-10-08T09:50:02;28.20;64.80
8945;DHT22;4507;40.232;29.132;2023-10-08T09:52:39;28.30;64.30
8945;DHT22;4507;40.232;29.132;2023-10-08T09:55:12;28.40;63.60
8945;DHT22;4507;40.232;29.132;2023-10-08T09:57:42;28.50;64.00
8945;DHT22;4507;40.232;29.132;2023-10-08T10:00:16;28.60;63.80
8945;DHT22;4507;40.232;29.132;2023-10-08T10:03:06;28.80;63.20
8945;DHT22;4507;40.232;29.132;2023-10-08T10:06:12;28.90;63.60
8945;DHT22;4507;40.232;29.132;2023-10-08T10:09:25;28.90;65.10
8945;DHT22;4507;40.232;29.132;2023-10-08T10:11:55;29.20;65.60
8945;DHT22;4507;40.232;29.132;2023-10-08T10:14:25;29.60;65.10
8945;DHT22;4507;40.232;29.132;2023-10-08T10:17:12;30.00;63.40
8945;DHT22;4507;40.232;29.132;2023-10-08T10:20:02;30.50;62.70
8945;DHT22;4507;40.232;29.132;2023-10-08T10:22:40;30.90;60.60
8945;DHT22;4507;40.232;29.132;2023-10-08T10:25:11;31.30;58.60
8945;DHT22;4507;40.232;29.132;2023-10-08T10:28:21;31.50;56.70
8945;DHT22;4507;40.232;29.132;2023-10-08T10:30:51;31.90;55.80
8945;DHT22;4507;40.232;29.132;2023-10-08T10:33:37;32.10;55.80
8945;DHT22;4507;40.232;29.132;2023-10-08T10:36:22;32.30;55.00
8945;DHT22;4507;40.232;29.132;2023-10-08T10:39:15;32.50;53.70
8945;DHT22;4507;40.232;29.132;2023-10-08T10:41:46;32.80;52.40
8945;DHT22;4507;40.232;29.132;2023-10-08T10:44:45;32.80;50.90
8945;DHT22;4507;40.232;29.132;2023-10-08T10:47:27;32.90;50.10
8945;DHT22;4507;40.232;29.132;2023-10-08T10:50:39;32.90;50.20
8945;DHT22;4507;40.232;29.132;2023-10-08T10:53:18;33.00;50.70
8945;DHT22;4507;40.232;29.132;2023-10-08T10:55:48;33.20;50.80
8945;DHT22;4507;40.232;29.132;2023-10-08T10:58:26;33.30;50.40
8945;DHT22;4507;40.232;29.132;2023-10-08T11:00:56;33.30;50.20
8945;DHT22;4507;40.232;29.132;2023-10-08T11:03:32;33.30;49.90
8945;DHT22;4507;40.232;29.132;2023-10-08T11:06:12;33.20;50.00
8945;DHT22;4507;40.232;29.132;2023-10-08T11:08:54;33.20;50.00
8945;DHT22;4507;40.232;29.132;2023-10-08T11:11:28;33.00;49.90
8945;DHT22;4507;40.232;29.132;2023-10-08T11:14:16;33.00;49.90
8945;DHT22;4507;40.232;29.132;2023-10-08T11:16:47;32.80;50.10
8945;DHT22;4507;40.232;29.132;2023-10-08T11:19:19;32.70;50.20
8945;DHT22;4507;40.232;29.132;2023-10-08T11:21:49;32.80;50.40
8945;DHT22;4507;40.232;29.132;2023-10-08T11:24:28;32.70;50.10
8945;DHT22;4507;40.232;29.132;2023-10-08T11:27:04;32.60;50.30
8945;DHT22;4507;40.232;29.132;2023-10-08T11:29:45;32.50;50.10
8945;DHT22;4507;40.232;29.132;2023-10-08T11:32:15;32.40;50.30
8945;DHT22;4507;40.232;29.132;2023-10-08T11:34:47;32.20;50.10
8945;DHT22;4507;40.232;29.132;2023-10-08T11:37:27;32.10;50.30
8945;DHT22;4507;40.232;29.132;2023-10-08T11:39:56;31.90;50.00
8945;DHT22;4507;40.232;29.132;2023-10-08T11:42:38;31.70;50.20
8945;DHT22;4507;40.232;29.132;2023-10-08T11:45:12;31.50;50.60
8945;DHT22;4507;40.232;29.132;2023-10-08T11:47:52;31.20;50.70
8945;DHT22;4507;40.232;29.132;2023-10-08T11:50:25;30.90;51.50
8945;DHT22;4507;40.232;29.132;2023-10-08T11:52:59;30.60;51.90
8945;DHT22;4507;40.232;29.132;2023-10-08T11:55:52;30.10;52.50
8945;DHT22;4507;40.232;29.132;2023-10-08T11:58:27;29.80;53.60
8945;DHT22;4507;40.232;29.132;2023-10-08T12:01:05;29.40;54.30
8945;DHT22;4507;40.232;29.132;2023-10-08T12:03:34;29.20;55.00
8945;DHT22;4507;40.232;29.132;2023-10-08T12:06:04;28.90;55.50
8945;DHT22;4507;40.232;29.132;2023-10-08T12:08:34;28.70;56.20
8945;DHT22;4507;40.232;29.132;2023-10-08T12:11:07;28.60;57.10
8945;DHT22;4507;40.232;29.132;2023-10-08T12:13:49;28.50;58.00
8945;DHT22;4507;40.232;29.132;2023-10-08T12:16:40;28.40;58.60
8945;DHT22;4507;40.232;29.132;2023-10-08T12:19:10;28.30;58.80
8945;DHT22;4507;40.232;29.132;2023-10-08T12:21:45;28.20;59.00
8945;DHT22;4507;40.232;29.132;2023-10-08T12:24:15;28.10;59.60
8945;DHT22;4507;40.232;29.132;2023-10-08T12:26:44;27.90;59.90
8945;DHT22;4507;40.232;29.132;2023-10-08T12:29:16;27.80;60.10
8945;DHT22;4507;40.232;29.132;2023-10-08T12:31:49;27.70;60.50
8945;DHT22;4507;40.232;29.132;2023-10-08T12:34:31;27.60;60.70
8945;DHT22;4507;40.232;29.132;2023-10-08T12:37:22;27.50;61.20
8945;DHT22;4507;40.232;29.132;2023-10-08T12:40:03;27.40;61.20
8945;DHT22;4507;40.232;29.132;2023-10-08T12:42:40;27.40;61.30
8945;DHT22;4507;40.232;29.132;2023-10-08T12:45:26;27.30;61.80
8945;DHT22;4507;40.232;29.132;2023-10-08T12:48:20;27.20;61.90
8945;DHT22;4507;40.232;29.132;2023-10-08T12:50:50;27.10;61.80
8945;DHT22;4507;40.232;29.132;2023-10-08T12:53:25;27.00;61.70
8945;DHT22;4507;40.232;29.132;2023-10-08T12:59:25;26.90;62.60
8945;DHT22;4507;40.232;29.132;2023-10-08T13:02:01;26.80;62.90
8945;DHT22;4507;40.232;29.132;2023-10-08T13:04:35;26.80;63.10
8945;DHT22;4507;40.232;29.132;2023-10-08T13:07:08;26.80;63.00
8945;DHT22;4507;40.232;29.132;2023-10-08T13:09:57;26.70;63.20
8945;DHT22;4507;40.232;29.132;2023-10-08T13:12:27;26.70;63.10
8945;DHT22;4507;40.232;29.132;2023-10-08T13:14:57;26.70;63.30
8945;DHT22;4507;40.232;29.132;2023-10-08T13:17:41;26.60;63.50
8945;DHT22;4507;40.232;29.132;2023-10-08T13:20:31;26.60;62.50
8945;DHT22;4507;40.232;29.132;2023-10-08T13:23:12;26.60;62.60
8945;DHT22;4507;40.232;29.132;2023-10-08T13:26:01;26.60;62.60
8945;DHT22;4507;40.232;29.132;2023-10-08T13:28:35;26.60;62.50
8945;DHT22;4507;40.232;29.132;2023-10-08T13:31:04;26.60;62.10
8945;DHT22;4507;40.232;29.132;2023-10-08T13:33:52;26.60;61.10
8945;DHT22;4507;40.232;29.132;2023-10-08T13:36:45;26.50;59.60
8945;DHT22;4507;40.232;29.132;2023-10-08T13:39:17;26.50;58.60
8945;DHT22;4507;40.232;29.132;2023-10-08T13:41:47;26.40;58.30
8945;DHT22;4507;40.232;29.132;2023-10-08T13:44:17;26.40;58.10
8945;DHT22;4507;40.232;29.132;2023-10-08T13:46:46;26.30;58.00
8945;DHT22;4507;40.232;29.132;2023-10-08T13:49:19;26.30;58.00
8945;DHT22;4507;40.232;29.132;2023-10-08T13:51:48;26.30;58.10
8945;DHT22;4507;40.232;29.132;2023-10-08T13:54:24;26.30;57.80
8945;DHT22;4507;40.232;29.132;2023-10-08T13:56:57;26.20;57.40
8945;DHT22;4507;40.232;29.132;2023-10-08T13:59:34;26.20;57.10
8945;DHT22;4507;40.232;29.132;2023-10-08T14:02:06;26.10;57.20
8945;DHT22;4507;40.232;29.132;2023-10-08T14:04:44;26.10;56.90
8945;DHT22;4507;40.232;29.132;2023-10-08T14:07:18;26.10;56.80
8945;DHT22;4507;40.232;29.132;2023-10-08T14:09:49;26.10;56.50
8945;DHT22;4507;40.232;29.132;2023-10-08T14:12:18;26.10;56.10
8945;DHT22;4507;40.232;29.132;2023-10-08T14:14:47;26.00;55.90
8945;DHT22;4507;40.232;29.132;2023-10-08T14:17:17;26.00;55.60
8945;DHT22;4507;40.232;29.132;2023-10-08T14:20:09;26.00;55.20
8945;DHT22;4507;40.232;29.132;2023-10-08T14:22:41;26.00;54.60
8945;DHT22;4507;40.232;29.132;2023-10-08T14:25:11;25.90;54.30
8945;DHT22;4507;40.232;29.132;2023-10-08T14:27:42;25.90;54.00
8945;DHT22;4507;40.232;29.132;2023-10-08T14:30:19;25.80;53.80
8945;DHT22;4507;40.232;29.132;2023-10-08T14:33:37;25.80;53.60
8945;DHT22;4507;40.232;29.132;2023-10-08T14:36:38;25.70;53.80
8945;DHT22;4507;40.232;29.132;2023-10-08T14:39:39;25.60;54.00
8945;DHT22;4507;40.232;29.132;2023-10-08T14:42:35;25.50;54.30
8945;DHT22;4507;40.232;29.132;2023-10-08T14:45:37;25.40;54.50
8945;DHT22;4507;40.232;29.132;2023-10-08T14:48:39;25.30;54.90
8945;DHT22;4507;40.232;29.132;2023-10-08T14:51:27;25.20;55.10
8945;DHT22;4507;40.232;29.132;2023-10-08T14:53:58;25.10;55.50
8945;DHT22;4507;40.232;29.132;2023-10-08T14:56:28;25.00;55.40
8945;DHT22;4507;40.232;29.132;2023-10-08T14:59:00;24.90;55.30
8945;DHT22;4507;40.232;29.132;2023-10-08T15:01:29;24.80;55.30
8945;DHT22;4507;40.232;29.132;2023-10-08T15:04:00;24.70;55.20
8945;DHT22;4507;40.232;29.132;2023-10-08T15:06:31;24.60;55.30
8945;DHT22;4507;40.232;29.132;2023-10-08T15:09:02;24.60;55.60
8945;DHT22;4507;40.232;29.132;2023-10-08T15:11:31;24.40;55.50
8945;DHT22;4507;40.232;29.132;2023-10-08T15:14:04;24.40;55.40
8945;DHT22;4507;40.232;29.132;2023-10-08T15:16:37;24.20;55.40
8945;DHT22;4507;40.232;29.132;2023-10-08T15:19:06;24.20;55.00
8945;DHT22;4507;40.232;29.132;2023-10-08T15:21:40;24.00;54.50
8945;DHT22;4507;40.232;29.132;2023-10-08T15:24:14;23.90;54.60
8945;DHT22;4507;40.232;29.132;2023-10-08T15:26:43;23.80;54.30
8945;DHT22;4507;40.232;29.132;2023-10-08T15:29:12;23.70;54.50
8945;DHT22;4507;40.232;29.132;2023-10-08T15:31:41;23.60;54.40
8945;DHT22;4507;40.232;29.132;2023-10-08T15:34:13;23.50;53.70
8945;DHT22;4507;40.232;29.132;2023-10-08T15:37:06;23.30;53.40
8945;DHT22;4507;40.232;29.132;2023-10-08T15:39:37;23.20;53.80
8945;DHT22;4507;40.232;29.132;2023-10-08T15:42:08;23.10;54.00
8945;DHT22;4507;40.232;29.132;2023-10-08T15:44:37;23.00;54.50
8945;DHT22;4507;40.232;29.132;2023-10-08T15:47:07;22.90;55.00
8945;DHT22;4507;40.232;29.132;2023-10-08T15:49:36;22.80;55.30
8945;DHT22;4507;40.232;29.132;2023-10-08T15:52:10;22.60;55.80
8945;DHT22;4507;40.232;29.132;2023-10-08T15:54:59;22.40;56.50
8945;DHT22;4507;40.232;29.132;2023-10-08T15:57:47;22.20;57.30
8945;DHT22;4507;40.232;29.132;2023-10-08T16:00:17;22.10;56.90
8945;DHT22;4507;40.232;29.132;2023-10-08T16:02:55;21.80;57.20
8945;DHT22;4507;40.232;29.132;2023-10-08T16:06:07;21.80;57.10
8945;DHT22;4507;40.232;29.132;2023-10-08T16:08:36;21.70;57.90
8945;DHT22;4507;40.232;29.132;2023-10-08T16:11:53;21.60;58.00
8945;DHT22;4507;40.232;29.132;2023-10-08T16:14:50;21.50;57.80
8945;DHT22;4507;40.232;29.132;2023-10-08T16:17:52;21.40;59.00
8945;DHT22;4507;40.232;29.132;2023-10-08T16:20:24;21.40;59.20
8945;DHT22;4507;40.232;29.132;2023-10-08T16:22:54;21.30;59.40
8945;DHT22;4507;40.232;29.132;2023-10-08T16:25:31;21.20;60.00
8945;DHT22;4507;40.232;29.132;2023-10-08T16:28:24;21.20;60.50
8945;DHT22;4507;40.232;29.132;2023-10-08T16:31:10;21.10;60.40
8945;DHT22;4507;40.232;29.132;2023-10-08T16:34:11;21.00;60.90
8945;DHT22;4507;40.232;29.132;2023-10-08T16:36:40;21.00;61.40
8945;DHT22;4507;40.232;29.132;2023-10-08T16:39:09;20.90;61.80
8945;DHT22;4507;40.232;29.132;2023-10-08T16:41:42;20.90;62.50
8945;DHT22;4507;40.232;29.132;2023-10-08T16:44:13;20.80;63.30
8945;DHT22;4507;40.232;29.132;2023-10-08T16:46:42;20.70;64.10
8945;DHT22;4507;40.232;29.132;2023-10-08T16:49:12;20.70;64.60
8945;DHT22;4507;40.232;29.132;2023-10-08T16:51:42;20.60;64.70
8945;DHT22;4507;40.232;29.132;2023-10-08T16:54:11;20.50;64.20
8945;DHT22;4507;40.232;29.132;2023-10-08T16:56:43;20.50;64.60
8945;DHT22;4507;40.232;29.132;2023-10-08T16:59:14;20.40;65.00
8945;DHT22;4507;40.232;29.132;2023-10-08T17:01:46;20.30;65.00
8945;DHT22;4507;40.232;29.132;2023-10-08T17:04:37;20.30;65.20
8945;DHT22;4507;40.232;29.132;2023-10-08T17:07:10;20.10;65.50
8945;DHT22;4507;40.232;29.132;2023-10-08T17:09:39;20.00;66.50
8945;DHT22;4507;40.232;29.132;2023-10-08T17:12:09;19.80;66.50